Weather History for Vinton, IA

Change the Weather History Date:

Sunday, December 9, 2012

  Actual Average Record
Temperature  
Mean Temperature 27 °F -  
Max Temperature 32 °F 34 °F 53 °F (1993)
Min Temperature 22 °F 17 °F -19 °F (1958)
Degree Days  
Heating Degree Days 38    
Moisture  
Dew Point 28 °F    
Average Humidity 90    
Maximum Humidity 95    
Minimum Humidity 81    
Precipitation  
Precipitation 0.03 in - - ()
Sea Level Pressure  
Sea Level Pressure 29.87 in    
Wind  
Wind Speed 9 mph (ESE)    
Max Wind Speed 20 mph    
Max Gust Speed 29 mph    
Visibility 6 miles    
Events Rain , Snow    
Averages and records for this station are not official NWS values.
T = Trace of Precipitation, MM = Missing Value Source: NWS Daily Summary

Daily Weather History Graph

Daily Weather History Graph

Search for Another Location

Airport:

Trip Planner

Search our weather history database for the weather conditions in past years. The results will help you decide how hot, cold, wet, or windy it might be!

Date:

Astronomy

Dec. 09, 2012 Rise Set
Actual Time 7:25 AM CST 4:35 PM CST
Civil Twilight 6:53 AM CST 5:07 PM CST
Nautical Twilight 6:18 AM CST 5:42 PM CST
Astronomical Twilight 5:44 AM CST 6:16 PM CST
Moon 2:55 AM CST (12/9) 1:45 PM CST (12/9)
Length of Visible Light 10h 13m
Length of Day
9h 10m
Waning Crescent, 18% of the Moon is Illuminated
Dec 9
Waning Crescent
Dec 13
New
Dec 19
First Quarter
Dec 28
Full
Jan 4
Last Quarter

Hourly Weather History & Observations

Time (CST) Temp. Windchill Dew Point Humidity Pressure Visibility Wind Dir Wind Speed Gust Speed Precip Events Conditions
12:15 AM 32.4 °F 24.6 °F 30.2 °F 92% 30.00 in 5.0 mi East 9.2 mph - N/A   Mostly Cloudy
12:35 AM 32.4 °F 24.0 °F 30.6 °F 93% 29.99 in 5.0 mi East 10.4 mph - N/A   Mostly Cloudy
12:55 AM 32.4 °F 24.6 °F 30.2 °F 92% 29.99 in 5.0 mi ESE 9.2 mph - N/A   Scattered Clouds
1:15 AM 32.4 °F 24.6 °F 30.2 °F 92% 29.99 in 5.0 mi ESE 9.2 mph - N/A   Mostly Cloudy
1:35 AM 32.4 °F 24.0 °F 30.2 °F 92% 29.97 in 5.0 mi ESE 10.4 mph - N/A   Mostly Cloudy
1:55 AM 32.4 °F 24.6 °F 30.2 °F 92% 29.96 in 5.0 mi East 9.2 mph - N/A   Mostly Cloudy
2:15 AM 32.4 °F 22.1 °F 30.2 °F 92% 29.95 in 5.0 mi ESE 15.0 mph - N/A   Mostly Cloudy
2:35 AM 32.4 °F 23.5 °F 30.0 °F 91% 29.95 in 5.0 mi ESE 11.5 mph - N/A   Overcast
2:55 AM 32.4 °F 24.0 °F 29.8 °F 90% 29.95 in 5.0 mi ESE 10.4 mph - N/A   Overcast
3:15 AM 32.4 °F 25.3 °F 29.7 °F 90% 29.95 in 7.0 mi ESE 8.1 mph - N/A   Overcast
3:35 AM 32.4 °F 25.3 °F 29.7 °F 90% 29.95 in 7.0 mi ESE 8.1 mph - N/A   Overcast
3:55 AM 32.4 °F 24.6 °F 29.7 °F 90% 29.95 in 7.0 mi East 9.2 mph - N/A   Overcast
4:15 AM 32.4 °F 24.6 °F 29.8 °F 90% 29.94 in 5.0 mi ESE 9.2 mph - N/A   Light Drizzle
4:35 AM 32.4 °F 24.6 °F 30.0 °F 91% 29.94 in 5.0 mi East 9.2 mph - N/A Rain Light Rain
4:55 AM 32.4 °F 25.3 °F 30.2 °F 92% 29.94 in 4.0 mi ESE 8.1 mph - N/A Rain Light Rain
5:15 AM 32.4 °F 25.3 °F 30.2 °F 92% 29.93 in 3.0 mi East 8.1 mph - N/A Snow Light Snow
5:35 AM 32.4 °F 26.0 °F 30.6 °F 93% 29.93 in 2.0 mi East 6.9 mph - N/A Snow Light Snow
5:55 AM 32.4 °F 26.9 °F 30.7 °F 94% 29.93 in 3.0 mi East 5.8 mph - N/A   Overcast
6:15 AM 32.4 °F 26.0 °F 30.9 °F 94% 29.93 in 3.0 mi East 6.9 mph - N/A   Overcast
6:35 AM 32.4 °F 26.0 °F 30.9 °F 94% 29.93 in 3.0 mi East 6.9 mph - N/A   Light Drizzle
6:55 AM 32.4 °F 25.3 °F 30.7 °F 94% 29.92 in 3.0 mi East 8.1 mph - N/A   Mist
7:15 AM 32.4 °F 24.0 °F 30.7 °F 94% 29.91 in 3.0 mi East 10.4 mph - N/A   Mist
7:35 AM 32.4 °F 24.6 °F 30.7 °F 94% 29.90 in 4.0 mi East 9.2 mph - N/A   Overcast
7:55 AM 32.4 °F 24.6 °F 30.7 °F 94% 29.91 in 4.0 mi East 9.2 mph - N/A   Overcast
8:15 AM 32.4 °F 25.3 °F 30.6 °F 93% 29.90 in 4.0 mi East 8.1 mph - N/A   Overcast
8:35 AM 32.4 °F 26.0 °F 30.6 °F 93% 29.90 in 3.0 mi East 6.9 mph - N/A Rain Light Rain
8:55 AM 32.4 °F 29.1 °F 30.6 °F 93% 29.90 in 1.5 mi NE 3.5 mph - N/A Snow Light Snow
9:15 AM 32.4 °F 29.1 °F 30.7 °F 94% 29.91 in 1.0 mi NE 3.5 mph - N/A Snow Light Snow
9:35 AM 32.4 °F 27.9 °F 30.9 °F 94% 29.89 in 0.5 mi NE 4.6 mph - 0.01 in Snow Light Snow
9:55 AM 32.4 °F 26.9 °F 30.9 °F 94% 29.88 in 0.8 mi NE 5.8 mph - 0.02 in Snow Light Snow
10:35 AM 32.4 °F 26.0 °F 31.1 °F 95% 29.88 in 1.2 mi East 6.9 mph - 0.01 in Snow Light Snow
10:55 AM 32.4 °F 26.9 °F 31.1 °F 95% 29.87 in 1.5 mi East 5.8 mph - 0.01 in Snow Light Snow
11:15 AM 32.4 °F 24.6 °F 31.1 °F 95% 29.84 in 1.2 mi East 9.2 mph - N/A Snow Light Snow
11:35 AM 32.4 °F 26.0 °F 31.1 °F 95% 29.84 in 1.5 mi ESE 6.9 mph - N/A   Overcast
11:55 AM 32.4 °F 29.1 °F 31.1 °F 95% 29.83 in 2.5 mi ESE 3.5 mph - N/A   Overcast
12:15 PM 32.4 °F 29.1 °F 30.9 °F 94% 29.83 in 4.0 mi ESE 3.5 mph - N/A   Overcast
12:35 PM 32.4 °F 27.9 °F 30.9 °F 94% 29.81 in 4.0 mi East 4.6 mph - N/A   Overcast
12:55 PM 32.4 °F 27.9 °F 30.7 °F 94% 29.81 in 5.0 mi ESE 4.6 mph - N/A   Overcast
1:15 PM 32.4 °F 26.9 °F 30.7 °F 94% 29.80 in 5.0 mi ESE 5.8 mph - N/A   Overcast
1:35 PM 32.4 °F 29.1 °F 30.6 °F 93% 29.80 in 7.0 mi SSE 3.5 mph - N/A   Overcast
1:55 PM 32.4 °F - 30.2 °F 92% 29.80 in 7.0 mi Calm Calm - N/A   Overcast
2:15 PM 32.4 °F - 30.2 °F 92% 29.79 in 5.0 mi Calm Calm - N/A   Overcast
2:35 PM 32.4 °F 29.1 °F 30.4 °F 92% 29.79 in 3.0 mi SW 3.5 mph - N/A Rain Rain
2:55 PM 32.4 °F - 30.6 °F 93% 29.80 in 4.0 mi Calm Calm - N/A   Light Drizzle
3:15 PM 32.4 °F 29.1 °F 30.6 °F 93% 29.80 in 5.0 mi South 3.5 mph - N/A   Overcast
3:35 PM 32.4 °F 27.9 °F 30.6 °F 93% 29.81 in 4.0 mi WSW 4.6 mph - N/A   Overcast
3:55 PM 32.4 °F 29.1 °F 30.6 °F 93% 29.81 in 3.0 mi SW 3.5 mph - N/A   Overcast
4:15 PM 32.4 °F - 30.7 °F 94% 29.80 in 4.0 mi Calm Calm - N/A   Overcast
4:35 PM 32.4 °F 29.1 °F 30.7 °F 94% 29.80 in 2.5 mi WSW 3.5 mph - N/A   Overcast
4:55 PM 32.7 °F 22.1 °F 31.3 °F 94% 29.80 in 4.0 mi West 16.1 mph 21.9 mph N/A   Overcast
5:15 PM 32.2 °F 20.4 °F 30.4 °F 93% 29.81 in 4.0 mi West 19.6 mph 28.8 mph N/A   Overcast
5:35 PM 30.2 °F 18.9 °F 27.1 °F 88% 29.82 in 10.0 mi West 16.1 mph 27.6 mph N/A   Overcast
5:55 PM 28.8 °F 15.9 °F 24.1 °F 83% 29.83 in 10.0 mi West 19.6 mph 27.6 mph N/A   Overcast
6:15 PM 27.5 °F 16.3 °F 23.0 °F 83% 29.82 in 10.0 mi West 13.8 mph 20.7 mph N/A   Overcast
6:35 PM 27.5 °F 15.4 °F 22.6 °F 82% 29.82 in 10.0 mi West 16.1 mph 24.2 mph N/A   Overcast
6:55 PM 27.5 °F 15.4 °F 22.5 °F 81% 29.82 in 10.0 mi West 16.1 mph 25.3 mph N/A   Overcast
7:15 PM 26.4 °F 15.0 °F 21.6 °F 82% 29.83 in 10.0 mi West 13.8 mph 26.5 mph N/A   Overcast
7:35 PM 25.2 °F 11.6 °F 20.3 °F 82% 29.83 in 10.0 mi West 18.4 mph 23.0 mph N/A   Overcast
7:55 PM 25.2 °F 12.4 °F 20.3 °F 82% 29.83 in 10.0 mi West 16.1 mph 25.3 mph N/A   Overcast
8:15 PM 25.2 °F 12.4 °F 20.3 °F 82% 29.84 in 10.0 mi West 16.1 mph 21.9 mph N/A   Overcast
8:35 PM 25.0 °F 12.2 °F 20.8 °F 84% 29.84 in 10.0 mi West 16.1 mph 20.7 mph N/A   Overcast
8:55 PM 23.9 °F 12.3 °F 19.4 °F 83% 29.84 in 10.0 mi West 12.7 mph 23.0 mph N/A   Overcast
9:15 PM 23.9 °F 12.9 °F 19.8 °F 84% 29.83 in 10.0 mi West 11.5 mph 17.3 mph N/A   Overcast
9:35 PM 25.2 °F 13.9 °F 21.2 °F 85% 29.84 in 10.0 mi West 12.7 mph 20.7 mph N/A   Overcast
9:55 PM 25.2 °F 15.7 °F 21.2 °F 85% 29.84 in 10.0 mi West 9.2 mph 19.6 mph N/A   Overcast
10:15 PM 25.2 °F 13.3 °F 20.8 °F 84% 29.84 in 10.0 mi West 13.8 mph 23.0 mph N/A   Overcast
10:35 PM 25.2 °F 12.9 °F 20.8 °F 84% 29.84 in 10.0 mi West 15.0 mph 20.7 mph N/A   Overcast
10:55 PM 23.5 °F 11.3 °F 19.4 °F 84% 29.84 in 10.0 mi West 13.8 mph 19.6 mph N/A   Overcast
11:15 PM 22.6 °F 11.3 °F 18.3 °F 83% 29.85 in 10.0 mi West 11.5 mph 19.6 mph N/A   Overcast
11:35 PM 22.6 °F 10.7 °F 18.3 °F 83% 29.85 in 10.0 mi West 12.7 mph 21.9 mph N/A   Overcast
11:55 PM 22.6 °F 10.1 °F 18.5 °F 84% 29.84 in 10.0 mi WNW 13.8 mph 24.2 mph N/A   Overcast